Time;durP1;ratioP1;P1;durP2;ratioP2;P2;SDS_P1;SDS_P2;PMS_P1;PMS_P2;Temp;Humidity;BMP_temperature;BMP_pressure;BME280_temperature;BME280_humidity;BME280_pressure;Samples;Min_cycle;Max_cycle;Signal;HPM_P1;HPM_P2
2022/03/14 00:00:19;;;;;;;13.00;8.75;;;10.30;53.10;;;;;;5146816;27;37644;-58
2022/03/14 00:02:47;;;;;;;17.08;9.02;;;10.20;53.40;;;;;;5147148;27;37259;-58
2022/03/14 00:05:17;;;;;;;14.38;9.50;;;10.30;53.50;;;;;;5147295;27;37537;-58
2022/03/14 00:07:46;;;;;;;15.65;9.60;;;10.20;54.20;;;;;;5145914;27;37707;-58
2022/03/14 00:10:16;;;;;;;15.55;9.57;;;10.20;53.90;;;;;;5146876;27;36748;-58
2022/03/14 00:12:44;;;;;;;15.48;10.32;;;10.10;54.20;;;;;;5146035;27;37153;-58
2022/03/14 00:15:13;;;;;;;14.85;9.60;;;10.10;54.20;;;;;;5147464;27;39789;-58
2022/03/14 00:17:44;;;;;;;18.02;9.77;;;10.10;54.40;;;;;;5147682;27;37850;-58
2022/03/14 00:20:13;;;;;;;14.15;9.60;;;10.10;54.40;;;;;;5147773;27;35380;-58
2022/03/14 00:22:41;;;;;;;16.65;10.02;;;10.10;54.40;;;;;;5147444;27;38038;-58
2022/03/14 00:25:11;;;;;;;15.70;9.40;;;10.10;54.50;;;;;;5146922;27;38524;-59
2022/03/14 00:27:38;;;;;;;16.75;10.05;;;10.10;54.80;;;;;;5147272;27;37858;-59
2022/03/14 00:30:08;;;;;;;16.15;10.90;;;10.10;55.20;;;;;;5146469;27;36324;-58
2022/03/14 00:32:35;;;;;;;14.75;10.00;;;10.00;55.70;;;;;;5145596;27;37615;-58
2022/03/14 00:35:03;;;;;;;16.30;10.43;;;10.00;56.20;;;;;;5147115;27;36542;-59
2022/03/14 00:37:30;;;;;;;16.75;10.43;;;9.90;57.00;;;;;;5146615;27;37465;-58
2022/03/14 00:39:58;;;;;;;15.63;9.50;;;9.90;57.50;;;;;;5146505;27;36780;-58
2022/03/14 00:42:27;;;;;;;16.42;10.18;;;9.90;58.20;;;;;;5146862;27;38045;-58
2022/03/14 00:44:54;;;;;;;16.02;9.73;;;9.90;59.30;;;;;;5145253;27;36534;-58
2022/03/14 00:47:22;;;;;;;14.88;10.38;;;9.80;60.50;;;;;;5145193;27;37048;-59
2022/03/14 00:49:50;;;;;;;16.70;11.02;;;9.80;61.90;;;;;;5145861;27;36640;-58
2022/03/14 00:52:17;;;;;;;15.20;10.20;;;9.80;63.30;;;;;;5145269;27;37615;-59
2022/03/14 00:54:45;;;;;;;16.27;9.88;;;9.80;64.50;;;;;;5146098;27;37308;-58
2022/03/14 00:57:14;;;;;;;17.38;10.48;;;9.80;65.50;;;;;;5146395;27;37492;-58
2022/03/14 00:59:43;;;;;;;15.38;10.05;;;9.90;66.20;;;;;;5145684;27;37964;-58
2022/03/14 01:02:11;;;;;;;16.38;10.50;;;9.90;67.60;;;;;;5144399;27;36317;-58
2022/03/14 01:04:38;;;;;;;14.48;9.77;;;9.90;68.60;;;;;;5145807;27;39125;-58
2022/03/14 01:07:07;;;;;;;15.40;9.70;;;9.90;69.60;;;;;;5147220;27;20097;-58
2022/03/14 01:09:34;;;;;;;15.48;9.75;;;10.00;70.70;;;;;;5146698;27;36530;-59
2022/03/14 01:12:02;;;;;;;14.10;9.88;;;10.10;71.40;;;;;;5145358;27;38188;-59
2022/03/14 01:14:29;;;;;;;15.05;10.32;;;10.10;71.50;;;;;;5145954;27;35820;-58
2022/03/14 01:16:58;;;;;;;15.90;9.43;;;10.10;72.40;;;;;;5145805;27;37749;-58
2022/03/14 01:19:25;;;;;;;16.70;10.02;;;10.20;72.80;;;;;;5146188;27;36758;-58
2022/03/14 01:21:53;;;;;;;14.07;9.68;;;10.20;73.30;;;;;;5145031;27;37539;-58
2022/03/14 01:24:20;;;;;;;13.40;9.60;;;10.20;73.30;;;;;;5144994;27;35500;-58
2022/03/14 01:26:47;;;;;;;12.90;9.27;;;10.30;74.00;;;;;;5145221;27;37167;-58
2022/03/14 01:29:17;;;;;;;16.70;9.93;;;10.30;74.70;;;;;;5145780;27;35503;-58
2022/03/14 01:31:44;;;;;;;14.30;9.55;;;10.30;74.70;;;;;;5146253;27;38710;-59
2022/03/14 01:34:14;;;;;;;14.77;9.43;;;10.20;75.30;;;;;;5145026;27;37773;-58
2022/03/14 01:36:41;;;;;;;13.63;9.10;;;10.30;75.80;;;;;;5144757;27;38044;-58
2022/03/14 01:39:09;;;;;;;13.45;9.25;;;10.30;76.30;;;;;;5145340;27;35410;-59
2022/03/14 01:41:36;;;;;;;14.95;9.57;;;10.40;75.90;;;;;;5145397;27;38646;-58
2022/03/14 01:44:04;;;;;;;14.68;9.75;;;10.40;75.80;;;;;;5145787;27;37910;-59
2022/03/14 01:46:32;;;;;;;13.55;9.32;;;10.40;76.00;;;;;;5143774;27;38120;-58
2022/03/14 01:49:00;;;;;;;15.43;8.98;;;10.40;76.20;;;;;;5146000;27;35350;-58
2022/03/14 01:51:29;;;;;;;13.70;8.98;;;10.40;76.60;;;;;;5144863;27;38644;-58
2022/03/14 01:53:56;;;;;;;14.23;8.98;;;10.40;76.90;;;;;;5145258;27;40519;-58
2022/03/14 01:56:25;;;;;;;15.10;9.55;;;10.40;77.10;;;;;;5145343;27;37385;-58
2022/03/14 01:58:54;;;;;;;12.85;8.88;;;10.40;77.50;;;;;;5145553;27;37379;-58
2022/03/14 02:01:22;;;;;;;13.73;9.60;;;10.40;77.80;;;;;;5145083;27;36222;-58
2022/03/14 02:03:50;;;;;;;13.57;8.57;;;10.30;78.00;;;;;;5142255;27;41015;-58
2022/03/14 02:06:17;;;;;;;16.52;9.85;;;10.30;78.20;;;;;;5145036;27;37369;-58
2022/03/14 02:08:46;;;;;;;12.80;8.73;;;10.40;78.50;;;;;;5144426;27;36465;-58
2022/03/14 02:11:13;;;;;;;13.07;8.63;;;10.40;79.00;;;;;;5145234;27;38534;-58
2022/03/14 02:13:41;;;;;;;13.70;9.73;;;10.40;79.00;;;;;;5145953;27;39137;-58
2022/03/14 02:16:08;;;;;;;11.82;8.75;;;10.40;79.40;;;;;;5148948;27;38653;-58
2022/03/14 02:18:35;;;;;;;12.80;9.63;;;10.30;79.40;;;;;;5148287;27;36424;-58
2022/03/14 02:21:05;;;;;;;14.38;9.40;;;10.30;79.50;;;;;;5148815;27;37090;-58
2022/03/14 02:23:33;;;;;;;12.32;8.55;;;10.30;79.60;;;;;;5146951;27;38696;-58
2022/03/14 02:26:00;;;;;;;14.30;8.80;;;10.30;79.50;;;;;;5148525;27;36102;-58
2022/03/14 02:28:27;;;;;;;12.93;8.70;;;10.20;79.70;;;;;;5147569;27;36395;-58
2022/03/14 02:30:55;;;;;;;13.15;8.20;;;10.20;79.80;;;;;;5148360;27;38312;-58
2022/03/14 02:33:22;;;;;;;14.68;8.88;;;10.20;80.50;;;;;;5148250;27;37208;-58
2022/03/14 02:35:50;;;;;;;14.30;9.32;;;10.20;80.90;;;;;;5148953;27;39173;-58
2022/03/14 02:38:19;;;;;;;13.65;9.00;;;10.10;81.30;;;;;;5148876;27;36836;-58
2022/03/14 02:40:48;;;;;;;14.63;8.70;;;10.10;81.80;;;;;;5149115;27;38113;-58
2022/03/14 02:43:17;;;;;;;13.90;8.80;;;10.10;82.10;;;;;;5148278;27;38218;-58
2022/03/14 02:45:46;;;;;;;13.18;9.38;;;10.00;82.00;;;;;;5148540;27;36726;-58
2022/03/14 02:48:14;;;;;;;12.93;8.63;;;10.00;82.50;;;;;;5147390;27;35394;-58
2022/03/14 02:50:42;;;;;;;15.68;9.02;;;10.00;82.60;;;;;;5148802;27;37813;-58
2022/03/14 02:53:11;;;;;;;12.35;8.95;;;9.90;83.20;;;;;;5147324;27;37619;-58
2022/03/14 02:55:40;;;;;;;14.55;9.52;;;10.00;83.50;;;;;;5148189;27;38744;-58
2022/03/14 02:58:08;;;;;;;13.05;8.93;;;9.90;83.80;;;;;;5147853;27;35335;-58
2022/03/14 03:00:36;;;;;;;12.98;9.35;;;9.90;83.60;;;;;;5148502;27;37335;-58
2022/03/14 03:03:05;;;;;;;14.18;9.13;;;10.00;83.70;;;;;;5147749;27;37222;-58
2022/03/14 03:05:35;;;;;;;14.25;9.15;;;10.00;83.40;;;;;;5147956;27;38581;-58
2022/03/14 03:08:03;;;;;;;14.35;9.40;;;10.00;83.20;;;;;;5147144;27;36539;-58
2022/03/14 03:10:32;;;;;;;13.07;9.30;;;10.00;82.90;;;;;;5149044;27;36278;-58
2022/03/14 03:13:01;;;;;;;17.08;9.90;;;10.10;83.10;;;;;;5147749;27;37724;-58
2022/03/14 03:15:28;;;;;;;13.30;9.13;;;10.00;83.40;;;;;;5148487;27;37167;-58
2022/03/14 03:17:55;;;;;;;12.75;8.40;;;10.00;83.70;;;;;;5146709;27;37200;-58
2022/03/14 03:20:25;;;;;;;12.75;8.82;;;10.00;84.00;;;;;;5148034;27;37641;-58
2022/03/14 03:22:52;;;;;;;14.82;9.23;;;10.00;84.20;;;;;;5147562;27;36416;-58
2022/03/14 03:25:20;;;;;;;14.13;9.68;;;10.00;84.40;;;;;;5146136;27;37260;-58
2022/03/14 03:27:47;;;;;;;12.50;9.15;;;10.00;84.00;;;;;;5147201;27;36581;-58
2022/03/14 03:30:16;;;;;;;12.63;8.50;;;10.10;83.80;;;;;;5147415;27;37382;-58
2022/03/14 03:32:44;;;;;;;13.00;8.68;;;10.10;83.80;;;;;;5146536;27;38297;-58
2022/03/14 03:35:11;;;;;;;12.77;8.82;;;10.20;83.80;;;;;;5147803;27;37775;-58
2022/03/14 03:37:38;;;;;;;13.82;8.38;;;10.20;83.90;;;;;;5147407;27;36404;-58
2022/03/14 03:40:07;;;;;;;13.30;8.07;;;10.10;84.10;;;;;;5148042;27;38284;-58
2022/03/14 03:42:34;;;;;;;11.05;8.02;;;10.10;84.10;;;;;;5147592;27;36572;-58
2022/03/14 03:45:02;;;;;;;11.60;8.13;;;10.20;84.10;;;;;;5147829;27;37541;-58
2022/03/14 03:47:30;;;;;;;10.85;7.68;;;10.20;84.10;;;;;;5146887;27;37161;-58
2022/03/14 03:49:58;;;;;;;11.02;7.53;;;10.20;84.10;;;;;;5147271;27;37788;-58
2022/03/14 03:52:25;;;;;;;9.80;7.10;;;10.20;84.10;;;;;;5147165;27;36395;-58
2022/03/14 03:54:52;;;;;;;11.88;8.10;;;10.30;84.00;;;;;;5147355;27;38130;-58
2022/03/14 03:57:20;;;;;;;12.70;7.38;;;10.30;83.90;;;;;;5146669;27;37933;-58
2022/03/14 03:59:47;;;;;;;13.10;6.97;;;10.30;84.20;;;;;;5146275;27;36291;-58
2022/03/14 04:02:19;;;;;;;10.95;7.13;;;10.20;84.20;;;;;;5147231;27;37514;-58
2022/03/14 04:04:48;;;;;;;10.30;7.30;;;10.20;84.40;;;;;;5147048;27;38656;-58
2022/03/14 04:07:18;;;;;;;12.07;7.93;;;10.20;84.50;;;;;;5147001;27;35316;-58
2022/03/14 04:09:46;;;;;;;12.50;7.20;;;10.30;84.80;;;;;;5146862;27;37703;-58
2022/03/14 04:12:14;;;;;;;11.20;7.05;;;10.20;85.10;;;;;;5146185;27;37839;-58
2022/03/14 04:14:41;;;;;;;10.40;6.50;;;10.20;85.00;;;;;;5147685;27;36174;-58
2022/03/14 04:17:08;;;;;;;11.48;6.25;;;10.20;85.10;;;;;;5147505;27;36520;-58
2022/03/14 04:19:41;;;;;;;9.52;6.10;;;10.20;85.10;;;;;;5146804;27;38823;-58
2022/03/14 04:22:10;;;;;;;9.77;6.30;;;10.30;85.00;;;;;;5147229;27;38186;-59
2022/03/14 04:24:37;;;;;;;9.77;7.13;;;10.30;84.90;;;;;;5147267;27;37864;-59
2022/03/14 04:27:05;;;;;;;9.48;6.30;;;10.30;84.60;;;;;;5146416;27;36628;-58
2022/03/14 04:29:32;;;;;;;11.48;6.05;;;10.40;84.50;;;;;;5146935;27;36178;-58
2022/03/14 04:32:00;;;;;;;11.05;6.85;;;10.40;84.60;;;;;;5146795;27;37304;-58
2022/03/14 04:34:27;;;;;;;8.13;5.32;;;10.40;84.80;;;;;;5145442;27;37597;-58
2022/03/14 04:36:54;;;;;;;7.85;5.10;;;10.40;84.90;;;;;;5146667;27;35291;-58
2022/03/14 04:39:23;;;;;;;8.10;5.03;;;10.50;85.20;;;;;;5146302;27;37616;-58
2022/03/14 04:41:51;;;;;;;8.60;5.07;;;10.50;85.10;;;;;;5146068;27;37276;-58
2022/03/14 04:44:19;;;;;;;8.50;5.20;;;10.40;86.00;;;;;;5146405;27;38334;-58
2022/03/14 04:46:46;;;;;;;7.97;5.07;;;10.40;86.20;;;;;;5147060;27;36749;-58
2022/03/14 04:49:13;;;;;;;9.05;5.30;;;10.50;86.20;;;;;;5145702;27;36150;-58
2022/03/14 04:51:41;;;;;;;11.35;6.03;;;10.40;86.60;;;;;;5146377;27;37558;-59
2022/03/14 04:54:09;;;;;;;9.00;4.63;;;10.40;86.70;;;;;;5146087;27;38464;-58
2022/03/14 04:56:37;;;;;;;7.93;4.57;;;10.40;86.80;;;;;;5146263;27;35530;-58
2022/03/14 04:59:05;;;;;;;8.65;4.70;;;10.40;86.80;;;;;;5145494;27;38173;-58
2022/03/14 05:01:32;;;;;;;6.13;3.83;;;10.50;86.90;;;;;;5146810;27;37100;-58
2022/03/14 05:04:00;;;;;;;6.97;4.40;;;10.50;87.00;;;;;;5144627;27;37132;-58
2022/03/14 05:06:27;;;;;;;9.00;4.72;;;10.50;87.00;;;;;;5146461;27;35525;-58
2022/03/14 05:08:54;;;;;;;7.85;4.60;;;10.50;87.10;;;;;;5145863;27;40491;-58
2022/03/14 05:11:21;;;;;;;6.90;4.43;;;10.50;87.10;;;;;;5146377;27;38573;-58
2022/03/14 05:13:50;;;;;;;7.80;4.45;;;10.50;87.50;;;;;;5145749;27;37263;-58
2022/03/14 05:16:17;;;;;;;6.65;4.00;;;10.50;87.60;;;;;;5145075;27;36370;-58
2022/03/14 05:18:45;;;;;;;8.90;4.43;;;10.50;87.90;;;;;;5145562;27;38329;-58
2022/03/14 05:21:13;;;;;;;7.95;4.30;;;10.50;88.30;;;;;;5145480;27;36632;-58
2022/03/14 05:23:40;;;;;;;6.45;4.03;;;10.50;88.70;;;;;;5145570;27;40633;-58
2022/03/14 05:26:07;;;;;;;7.53;4.43;;;10.40;89.00;;;;;;5145857;27;36429;-57
2022/03/14 05:28:35;;;;;;;7.97;3.63;;;10.40;88.80;;;;;;5144727;27;37511;-58
2022/03/14 05:31:04;;;;;;;6.50;3.83;;;10.40;88.90;;;;;;5144857;27;36362;-58
2022/03/14 05:33:31;;;;;;;6.10;3.75;;;10.50;89.30;;;;;;5143419;27;36132;-58
2022/03/14 05:35:58;;;;;;;7.78;3.80;;;10.40;89.50;;;;;;5144565;27;36167;-58
2022/03/14 05:38:28;;;;;;;6.28;3.58;;;10.40;89.80;;;;;;5144914;27;38954;-58
2022/03/14 05:40:56;;;;;;;6.85;3.30;;;10.50;90.10;;;;;;5144787;27;37791;-58
2022/03/14 05:43:27;;;;;;;6.10;3.50;;;10.50;90.10;;;;;;5145937;27;37211;-58
2022/03/14 05:45:55;;;;;;;5.95;3.42;;;10.40;90.30;;;;;;5145368;27;37359;-58
2022/03/14 05:48:23;;;;;;;5.97;3.58;;;10.50;90.30;;;;;;5145347;27;36225;-58
2022/03/14 05:50:51;;;;;;;7.13;3.90;;;10.50;90.60;;;;;;5146499;27;37449;-58
2022/03/14 05:53:18;;;;;;;5.78;3.30;;;10.50;90.80;;;;;;5145748;27;37463;-58
2022/03/14 05:55:45;;;;;;;8.00;4.03;;;10.40;91.20;;;;;;5145116;27;37146;-58
2022/03/14 05:58:12;;;;;;;5.40;3.25;;;10.40;91.50;;;;;;5144997;27;36270;-58
2022/03/14 06:00:40;;;;;;;6.45;3.80;;;10.30;91.90;;;;;;5144162;27;38460;-58
2022/03/14 06:03:07;;;;;;;6.10;3.45;;;10.30;92.30;;;;;;5144754;27;37361;-58
2022/03/14 06:05:36;;;;;;;6.53;3.40;;;10.30;92.60;;;;;;5146167;27;35938;-58
2022/03/14 06:08:03;;;;;;;6.30;3.67;;;10.30;92.60;;;;;;5144869;27;38395;-58
2022/03/14 06:10:32;;;;;;;6.25;3.38;;;10.30;93.10;;;;;;5145450;27;38532;-58
2022/03/14 06:13:00;;;;;;;5.82;3.45;;;10.20;93.20;;;;;;5145427;27;38371;-59
2022/03/14 06:15:27;;;;;;;5.22;3.42;;;10.30;93.30;;;;;;5145717;27;36520;-58
2022/03/14 06:17:54;;;;;;;6.55;3.28;;;10.30;93.30;;;;;;5145203;27;36319;-58
2022/03/14 06:20:22;;;;;;;6.00;3.40;;;10.30;93.30;;;;;;5145062;27;37769;-58
2022/03/14 06:22:50;;;;;;;6.97;3.58;;;10.30;93.30;;;;;;5144322;27;37398;-58
2022/03/14 06:25:18;;;;;;;5.88;3.10;;;10.30;93.40;;;;;;5144773;27;37866;-58
2022/03/14 06:27:46;;;;;;;6.47;3.80;;;10.30;93.60;;;;;;5144466;27;38948;-58
2022/03/14 06:30:15;;;;;;;6.13;3.22;;;10.30;93.50;;;;;;5143683;27;36331;-58
2022/03/14 06:32:43;;;;;;;6.43;3.42;;;10.40;93.60;;;;;;5143884;27;36097;-58
2022/03/14 06:35:14;;;;;;;5.82;3.38;;;10.40;93.40;;;;;;5144345;27;37161;-58
2022/03/14 06:37:42;;;;;;;6.07;2.97;;;10.50;93.40;;;;;;5144584;27;37047;-58
2022/03/14 06:40:12;;;;;;;6.00;3.35;;;10.50;93.30;;;;;;5143229;27;39796;-58
2022/03/14 06:42:41;;;;;;;6.35;3.15;;;10.50;93.30;;;;;;5143158;27;37230;-58
2022/03/14 06:45:11;;;;;;;5.30;2.88;;;10.50;93.20;;;;;;5144166;27;37638;-58
2022/03/14 06:47:39;;;;;;;6.30;3.40;;;10.50;93.20;;;;;;5143071;27;37165;-58
2022/03/14 06:50:08;;;;;;;5.18;3.47;;;10.50;93.30;;;;;;5143603;27;37744;-58
2022/03/14 06:52:35;;;;;;;4.85;2.90;;;10.60;93.40;;;;;;5144837;27;36850;-58
2022/03/14 06:55:04;;;;;;;6.25;3.22;;;10.60;93.40;;;;;;5144313;27;36399;-58
2022/03/14 06:57:33;;;;;;;4.55;2.75;;;10.60;93.40;;;;;;5145097;27;38129;-58
2022/03/14 07:00:01;;;;;;;6.07;3.20;;;10.60;93.40;;;;;;5144423;27;37520;-59
2022/03/14 07:02:28;;;;;;;5.75;3.22;;;10.60;93.60;;;;;;5148725;27;37453;-58
2022/03/14 07:04:56;;;;;;;5.30;3.05;;;10.60;93.80;;;;;;5147598;27;36451;-58
2022/03/14 07:07:23;;;;;;;5.57;3.28;;;10.60;94.00;;;;;;5147859;27;38074;-58
2022/03/14 07:09:51;;;;;;;6.93;3.45;;;10.50;94.30;;;;;;5147144;27;38367;-58
2022/03/14 07:12:18;;;;;;;5.30;3.13;;;10.40;94.70;;;;;;5148029;27;36197;-58
2022/03/14 07:14:47;;;;;;;7.93;3.78;;;10.40;95.10;;;;;;5148341;27;35538;-58
2022/03/14 07:17:14;;;;;;;7.15;3.08;;;10.40;95.60;;;;;;5148166;27;38253;-51
2022/03/14 07:19:45;;;;;;;6.20;3.80;;;10.30;95.90;;;;;;5137424;27;38163;-52
2022/03/14 07:22:17;;;;;;;5.45;3.15;;;10.30;95.90;;;;;;5139301;27;38274;-51
2022/03/14 07:24:45;;;;;;;5.30;3.20;;;10.30;96.10;;;;;;5140678;27;36785;-48
2022/03/14 07:27:13;;;;;;;6.65;4.00;;;10.30;96.10;;;;;;5142102;27;37585;-48
2022/03/14 07:29:40;;;;;;;6.63;3.40;;;10.30;96.40;;;;;;5140803;27;38117;-51
2022/03/14 07:32:09;;;;;;;6.20;3.47;;;10.30;96.60;;;;;;5141822;27;37330;-50
2022/03/14 07:34:37;;;;;;;6.00;3.35;;;10.30;96.90;;;;;;5141275;27;35376;-52
2022/03/14 07:37:05;;;;;;;8.13;3.58;;;10.30;97.30;;;;;;5141012;27;37501;-50
2022/03/14 07:39:32;;;;;;;8.02;3.90;;;10.30;97.50;;;;;;5138452;27;38769;-50
2022/03/14 07:42:00;;;;;;;6.43;3.60;;;10.30;97.80;;;;;;5139121;27;36114;-52
2022/03/14 07:44:27;;;;;;;5.53;3.35;;;10.40;97.70;;;;;;5141089;27;36541;-50
2022/03/14 07:46:54;;;;;;;11.00;3.90;;;10.30;98.00;;;;;;5139289;27;39045;-51
2022/03/14 07:49:23;;;;;;;5.93;3.47;;;10.30;98.10;;;;;;5140766;27;36509;-58
2022/03/14 07:51:50;;;;;;;6.63;3.50;;;10.30;98.70;;;;;;5140674;27;36233;-58
2022/03/14 07:54:18;;;;;;;6.82;3.70;;;10.30;98.60;;;;;;5140507;27;39841;-58
2022/03/14 07:56:46;;;;;;;6.75;4.22;;;10.30;98.80;;;;;;5140486;27;39011;-58
2022/03/14 07:59:13;;;;;;;7.28;4.15;;;10.30;99.10;;;;;;5137040;27;36581;-58
2022/03/14 08:01:40;;;;;;;8.27;4.20;;;10.20;99.20;;;;;;5138652;27;37263;-51
2022/03/14 08:04:08;;;;;;;5.70;3.45;;;10.30;99.30;;;;;;5137208;27;37512;-51
2022/03/14 08:06:41;;;;;;;7.38;3.75;;;10.30;99.10;;;;;;5139352;27;38175;-52
2022/03/14 08:09:09;;;;;;;6.32;4.03;;;10.40;99.00;;;;;;5138081;27;38349;-51
2022/03/14 08:11:38;;;;;;;6.45;4.07;;;10.50;98.80;;;;;;5139310;27;38780;-51
2022/03/14 08:14:05;;;;;;;6.50;4.07;;;10.50;99.00;;;;;;5141025;27;36591;-51
2022/03/14 08:16:33;;;;;;;7.00;3.60;;;10.50;99.40;;;;;;5138888;27;37385;-52
2022/03/14 08:19:00;;;;;;;5.80;3.70;;;10.50;99.60;;;;;;5138538;27;37340;-58
2022/03/14 08:21:28;;;;;;;5.75;3.50;;;10.50;99.40;;;;;;5139419;27;37336;-50
2022/03/14 08:23:56;;;;;;;7.10;4.05;;;10.50;99.70;;;;;;5139208;27;35224;-57
2022/03/14 08:26:23;;;;;;;22.33;5.88;;;10.50;99.70;;;;;;5137309;27;36335;-58
2022/03/14 08:28:51;;;;;;;6.97;4.35;;;10.50;99.80;;;;;;5134178;27;37950;-58
2022/03/14 08:31:21;;;;;;;6.90;4.20;;;10.50;99.80;;;;;;5139775;27;37301;-58
2022/03/14 08:33:48;;;;;;;6.85;4.60;;;10.50;99.80;;;;;;5138338;27;36067;-58
2022/03/14 08:36:20;;;;;;;8.93;4.18;;;10.60;99.90;;;;;;5139723;27;37217;-58
2022/03/14 08:38:48;;;;;;;7.10;4.03;;;10.60;99.80;;;;;;5140221;27;37732;-58
2022/03/14 08:41:16;;;;;;;6.90;4.78;;;10.50;99.90;;;;;;5136474;27;37495;-58
2022/03/14 08:43:44;;;;;;;7.22;4.57;;;10.50;99.90;;;;;;5138541;27;36675;-50
2022/03/14 08:46:14;;;;;;;7.07;4.60;;;10.50;99.90;;;;;;5138657;27;38231;-50
2022/03/14 08:48:42;;;;;;;6.55;4.43;;;10.50;99.90;;;;;;5138057;27;38862;-49
2022/03/14 08:51:09;;;;;;;6.20;4.25;;;10.50;99.90;;;;;;5138645;27;39122;-52
2022/03/14 08:53:36;;;;;;;7.85;5.05;;;10.40;99.90;;;;;;5138152;27;36996;-51
2022/03/14 08:56:04;;;;;;;8.30;4.32;;;10.50;99.90;;;;;;5139581;27;37608;-51
2022/03/14 08:58:33;;;;;;;8.80;5.10;;;10.50;99.90;;;;;;5139212;27;38228;-52
2022/03/14 09:01:01;;;;;;;6.53;4.43;;;10.50;99.90;;;;;;5139031;27;37421;-58
2022/03/14 09:03:28;;;;;;;7.22;4.93;;;10.50;99.90;;;;;;5140312;27;36897;-58
2022/03/14 09:05:56;;;;;;;10.23;4.50;;;10.50;99.90;;;;;;5138792;27;36248;-58
2022/03/14 09:08:24;;;;;;;7.15;5.10;;;10.50;99.90;;;;;;5139456;27;37859;-58
2022/03/14 09:10:53;;;;;;;8.43;4.32;;;10.50;99.90;;;;;;5139323;27;37842;-58
2022/03/14 09:13:21;;;;;;;7.60;4.65;;;10.60;99.90;;;;;;5140010;27;37396;-52
2022/03/14 09:15:50;;;;;;;6.72;4.45;;;10.50;99.90;;;;;;5138131;27;37586;-52
2022/03/14 09:18:19;;;;;;;7.60;4.53;;;10.50;99.90;;;;;;5139285;27;38698;-51
2022/03/14 09:20:47;;;;;;;9.00;5.13;;;10.50;99.90;;;;;;5138294;27;39723;-50
2022/03/14 09:23:15;;;;;;;7.53;4.75;;;10.50;99.90;;;;;;5138190;27;37358;-49
2022/03/14 09:25:42;;;;;;;7.63;4.90;;;10.50;99.90;;;;;;5138226;27;38041;-50
2022/03/14 09:28:10;;;;;;;7.80;5.20;;;10.50;99.90;;;;;;5133653;27;38597;-51
2022/03/14 09:30:38;;;;;;;7.15;4.93;;;10.50;99.90;;;;;;5136963;27;36969;-49
2022/03/14 09:33:07;;;;;;;7.93;4.95;;;10.60;99.90;;;;;;5133990;27;35421;-58
2022/03/14 09:35:34;;;;;;;7.40;5.50;;;10.50;99.90;;;;;;5137399;27;37611;-48
2022/03/14 09:38:02;;;;;;;7.25;5.00;;;10.50;99.90;;;;;;5137252;27;37912;-51
2022/03/14 09:40:31;;;;;;;8.75;5.40;;;10.50;99.90;;;;;;5138114;27;37344;-48
2022/03/14 09:43:00;;;;;;;8.90;5.47;;;10.50;99.90;;;;;;5138137;27;36698;-51
2022/03/14 09:45:28;;;;;;;7.10;4.85;;;10.50;99.90;;;;;;5137860;27;39409;-57
2022/03/14 09:47:58;;;;;;;12.13;5.70;;;10.50;99.90;;;;;;5138202;27;37502;-58
2022/03/14 09:50:32;;;;;;;10.32;6.20;;;10.50;99.90;;;;;;5136728;27;37833;-51
2022/03/14 09:53:04;;;;;;;11.98;8.00;;;10.50;99.90;;;;;;5137376;27;36851;-50
2022/03/14 09:55:32;;;;;;;19.30;15.02;;;10.50;99.90;;;;;;5136719;27;37192;-49
2022/03/14 09:57:59;;;;;;;21.38;16.42;;;10.40;99.90;;;;;;5137011;27;37087;-52
2022/03/14 10:00:27;;;;;;;21.73;17.02;;;10.40;99.90;;;;;;5136914;27;36680;-50
2022/03/14 10:02:54;;;;;;;22.15;16.65;;;10.30;99.90;;;;;;5137666;27;35719;-51
2022/03/14 10:05:21;;;;;;;19.73;15.18;;;10.30;99.90;;;;;;5135877;27;37879;-52
2022/03/14 10:07:50;;;;;;;19.13;14.68;;;10.30;99.90;;;;;;5137860;27;38684;-59
2022/03/14 10:10:18;;;;;;;19.85;15.15;;;10.20;99.90;;;;;;5138206;27;37422;-58
2022/03/14 10:12:52;;;;;;;19.27;14.13;;;10.20;99.90;;;;;;5138172;27;37325;-58
2022/03/14 10:15:21;;;;;;;19.17;13.80;;;10.20;99.90;;;;;;5138153;27;36252;-58
2022/03/14 10:17:48;;;;;;;18.65;13.98;;;10.30;99.90;;;;;;5137114;27;38113;-57
2022/03/14 10:20:16;;;;;;;19.27;13.45;;;10.30;99.90;;;;;;5136672;27;37576;-57
2022/03/14 10:22:45;;;;;;;20.67;12.45;;;10.40;99.90;;;;;;5135887;27;37993;-57
2022/03/14 10:25:15;;;;;;;16.95;11.60;;;10.40;99.90;;;;;;5131869;27;38064;-57
2022/03/14 10:27:45;;;;;;;17.75;11.27;;;10.40;99.90;;;;;;5134450;27;39461;-57
2022/03/14 10:30:25;;;;;;;17.20;10.02;;;10.40;99.90;;;;;;5133232;27;37623;-57
2022/03/14 10:33:01;;;;;;;18.08;10.35;;;10.40;99.90;;;;;;5133888;27;36982;-57
2022/03/14 10:35:35;;;;;;;17.23;9.85;;;10.50;99.90;;;;;;5136437;27;37578;-58
2022/03/14 10:38:04;;;;;;;14.90;9.07;;;10.50;99.90;;;;;;5138794;27;37103;-57
2022/03/14 10:40:35;;;;;;;16.05;9.38;;;10.60;99.90;;;;;;5138593;27;36143;-57
2022/03/14 10:43:06;;;;;;;14.00;7.95;;;10.60;99.90;;;;;;5138416;27;36063;-57
2022/03/14 10:45:34;;;;;;;17.35;8.95;;;10.60;99.90;;;;;;5138920;27;36924;-57
2022/03/14 10:48:02;;;;;;;20.55;9.80;;;10.70;99.90;;;;;;5137829;27;37721;-57
2022/03/14 10:50:31;;;;;;;17.20;8.52;;;10.70;99.90;;;;;;5136786;27;37568;-57
2022/03/14 10:53:10;;;;;;;18.70;9.35;;;10.70;99.90;;;;;;5135971;27;37019;-57
2022/03/14 10:55:40;;;;;;;20.27;9.13;;;10.70;99.90;;;;;;5137264;27;38645;-57
2022/03/14 10:58:10;;;;;;;19.42;8.38;;;10.70;99.90;;;;;;5136161;27;37782;-58
2022/03/14 11:00:47;;;;;;;17.45;7.95;;;10.70;99.90;;;;;;5137351;27;37164;-57
2022/03/14 11:03:22;;;;;;;19.17;8.80;;;10.70;99.90;;;;;;5138585;27;36900;-57
2022/03/14 11:05:49;;;;;;;23.80;8.05;;;10.70;99.90;;;;;;5137808;27;40031;-57
2022/03/14 11:08:26;;;;;;;15.88;7.53;;;10.70;99.90;;;;;;5134863;27;37884;-57
2022/03/14 11:10:56;;;;;;;19.67;8.35;;;10.80;99.90;;;;;;5136908;27;37637;-57
2022/03/14 11:13:24;;;;;;;17.13;8.13;;;10.80;99.90;;;;;;5135413;27;35100;-57
2022/03/14 11:15:51;;;;;;;19.38;7.97;;;10.80;99.90;;;;;;5136069;27;38279;-57
2022/03/14 11:18:20;;;;;;;15.77;8.30;;;10.90;99.90;;;;;;5135991;27;35986;-57
2022/03/14 11:20:48;;;;;;;21.98;8.88;;;10.90;99.90;;;;;;5134228;27;37468;-57
2022/03/14 11:23:16;;;;;;;16.75;8.43;;;10.90;99.90;;;;;;5135605;27;35281;-57
2022/03/14 11:25:45;;;;;;;21.25;9.98;;;10.90;99.90;;;;;;5134781;27;37951;-56
2022/03/14 11:28:17;;;;;;;18.60;7.82;;;10.90;99.90;;;;;;5134979;27;36446;-57
2022/03/14 11:30:57;;;;;;;17.58;8.00;;;10.90;99.90;;;;;;5134543;27;36248;-57
2022/03/14 11:33:25;;;;;;;18.02;8.00;;;10.90;99.90;;;;;;5135281;27;36725;-57
2022/03/14 11:35:53;;;;;;;17.42;8.07;;;10.90;99.90;;;;;;5136145;27;38150;-56
2022/03/14 11:38:21;;;;;;;20.00;7.28;;;11.00;99.90;;;;;;5135994;27;36964;-57
2022/03/14 11:40:51;;;;;;;12.75;6.03;;;11.00;99.90;;;;;;5136063;27;38616;-57
2022/03/14 11:43:21;;;;;;;17.55;6.78;;;11.10;99.90;;;;;;5135782;27;35298;-57
2022/03/14 11:45:50;;;;;;;16.90;7.72;;;11.00;99.90;;;;;;5135106;27;37279;-57
2022/03/14 11:48:18;;;;;;;13.52;6.28;;;11.10;99.90;;;;;;5134329;27;37645;-57
2022/03/14 11:50:47;;;;;;;14.73;5.90;;;11.10;99.90;;;;;;5136261;27;39317;-57
2022/03/14 11:53:23;;;;;;;15.73;6.57;;;11.10;99.90;;;;;;5134778;27;36806;-57
2022/03/14 11:55:54;;;;;;;16.30;6.85;;;11.10;99.90;;;;;;5135335;27;36322;-57
2022/03/14 11:58:58;;;;;;;14.70;6.03;;;11.10;99.90;;;;;;5134570;27;39223;-56
2022/03/14 12:01:28;;;;;;;13.52;5.97;;;11.10;99.90;;;;;;5122282;27;37816;-57
2022/03/14 12:04:00;;;;;;;16.70;6.70;;;11.10;99.90;;;;;;5134853;27;37130;-57
2022/03/14 12:07:05;;;;;;;13.63;6.82;;;11.10;99.90;;;;;;5135506;27;37585;-57
2022/03/14 12:09:51;;;;;;;16.75;7.85;;;11.10;99.90;;;;;;5134623;27;38805;-58
2022/03/14 12:12:31;;;;;;;17.02;7.78;;;11.10;99.90;;;;;;5135676;27;37377;-57
2022/03/14 12:15:01;;;;;;;20.15;8.80;;;11.10;99.90;;;;;;5136376;27;36640;-57
2022/03/14 12:17:31;;;;;;;18.83;8.32;;;11.10;99.90;;;;;;5136050;27;37734;-57
2022/03/14 12:20:00;;;;;;;17.67;8.85;;;11.10;99.90;;;;;;5134651;27;37453;-57
2022/03/14 12:22:40;;;;;;;18.23;9.05;;;11.10;99.90;;;;;;5136548;27;36204;-57
2022/03/14 12:25:09;;;;;;;22.38;9.98;;;11.10;99.90;;;;;;5134919;27;35492;-57
2022/03/14 12:27:38;;;;;;;19.75;9.45;;;11.20;99.90;;;;;;5135998;27;36343;-57
2022/03/14 12:30:25;;;;;;;17.85;9.02;;;11.30;99.90;;;;;;5133682;27;37571;-57
2022/03/14 12:32:54;;;;;;;19.00;9.98;;;11.30;99.90;;;;;;5133745;27;35914;-58
2022/03/14 12:35:27;;;;;;;21.98;10.52;;;11.40;99.90;;;;;;5135795;27;37263;-56
2022/03/14 12:37:56;;;;;;;20.35;9.60;;;11.50;99.90;;;;;;5134978;27;37687;-57
2022/03/14 12:40:43;;;;;;;21.60;10.02;;;11.60;99.90;;;;;;5135512;27;37398;-57
2022/03/14 12:43:31;;;;;;;22.55;10.80;;;11.60;99.90;;;;;;5135362;27;37368;-57
2022/03/14 12:46:02;;;;;;;21.52;10.75;;;11.70;99.90;;;;;;5134709;27;38011;-56
2022/03/14 12:48:32;;;;;;;18.80;10.48;;;11.70;99.90;;;;;;5131649;27;37038;-57